Capitol Logistics 3276


MBPV
Providenciales International Airport
Providenciales, TC
MYNN
Lynden Pindling International Airport
Nassau, BS

Activity Log

Date Flight Route Aircraft Duration
04/14/2020 CPX3276 PVN BR2L DUKKY A555 ZQA SF34 2h 25m
10/12/2019 CPX676 PVN BR2L DUKKY A555 ZQA SF34 1h 59m
09/04/2019 CPX676 PVN BR2L DUKKY A555 ZQA SF34 1h 25m
08/23/2019 CPX676 PVN BR2L DUKKY A555 ZQA SF34 1h 31m

Route Details

Aircraft Information
Primary: Saab 340AF
Backup: Not Available
Route Data
Distance: 347nm
Sched. Duration: 2h 20m
Avg. Duration: 1h 60m (-60m)
Times Flown: 4
Recm'd Route: PVN BR2L DUKKY A555 ZQA
Planned Altitude: 17,000ft
Origin Wx: MBPV 241900Z 12005KT 9999 SCT015 31/25 Q1012
Dest. Wx: MYNN 251300Z 12005KT 090V150 9000 -SHRA SCT012CB OVC060 23/21 A2999 RMK CB SCT ALQDS
Notes:

Financial History
Total Freight: 20,485lbs
Average Load: 5,121lbs/flt
Fuel Used: 6,470lbs
Avg. Fuel Used: 1,618lbs/flt
Fuel Expense: $4,400
Avg. Fuel Expense: $1,100
Avg. Fuel Cost: $0.68/lbs
Total Gross Income: $23,551
Pilot Pay: $916
Total Expenses: $2,752
Total Revenue: $14,670
Average Revenue: $5,887.74